createdAt,value
2018-01-26T00:00:45.601Z,0
2018-01-26T00:01:46.271Z,0
2018-01-26T00:02:46.942Z,0
2018-01-26T00:03:47.607Z,0
2018-01-26T00:04:48.274Z,0
2018-01-26T00:05:48.942Z,0
2018-01-26T00:06:49.608Z,0
2018-01-26T00:07:50.311Z,0
2018-01-26T00:08:50.981Z,0
2018-01-26T00:09:51.647Z,0
2018-01-26T00:10:52.315Z,0
2018-01-26T00:11:52.983Z,0
2018-01-26T00:12:53.649Z,0
2018-01-26T00:13:54.315Z,0
2018-01-26T00:14:54.981Z,0
2018-01-26T00:15:55.689Z,0
2018-01-26T00:16:56.358Z,0
2018-01-26T00:17:57.021Z,0
2018-01-26T00:18:57.687Z,0
2018-01-26T00:19:58.354Z,0
2018-01-26T00:20:59.022Z,0
2018-01-26T00:21:59.688Z,0
2018-01-26T00:23:00.354Z,0
2018-01-26T00:24:01.023Z,0
2018-01-26T00:25:01.688Z,0
2018-01-26T00:26:02.355Z,0
2018-01-26T00:27:03.020Z,0
2018-01-26T00:28:03.686Z,0
2018-01-26T00:29:04.400Z,0
2018-01-26T00:30:05.073Z,0
2018-01-26T00:31:05.732Z,0
2018-01-26T00:32:06.398Z,0
2018-01-26T00:33:07.065Z,0
2018-01-26T00:34:07.796Z,0
2018-01-26T00:35:08.449Z,0
2018-01-26T00:36:09.117Z,0
2018-01-26T00:37:09.785Z,0
2018-01-26T00:38:10.459Z,0
2018-01-26T00:39:11.117Z,0
2018-01-26T00:40:11.786Z,0
2018-01-26T00:41:12.488Z,0
2018-01-26T00:42:13.156Z,0
2018-01-26T00:43:13.822Z,0
2018-01-26T00:44:14.489Z,0
2018-01-26T00:45:15.155Z,0
2018-01-26T00:46:15.824Z,0
2018-01-26T00:47:16.489Z,0
2018-01-26T00:48:17.186Z,0
2018-01-26T00:49:17.863Z,0
2018-01-26T00:50:18.529Z,0
2018-01-26T00:51:19.196Z,0
2018-01-26T00:52:19.862Z,0
2018-01-26T00:53:20.530Z,0
2018-01-26T00:54:21.252Z,0
2018-01-26T00:55:21.914Z,0
2018-01-26T00:56:22.580Z,0
2018-01-26T00:57:23.247Z,0
2018-01-26T00:58:23.914Z,0
2018-01-26T00:59:24.581Z,0
2018-01-26T01:00:25.246Z,0
2018-01-26T01:01:25.912Z,0
2018-01-26T01:02:26.579Z,0
2018-01-26T01:03:27.246Z,0
2018-01-26T01:04:27.912Z,0
2018-01-26T01:05:28.578Z,0
2018-01-26T01:06:29.244Z,0
2018-01-26T01:07:29.911Z,0
2018-01-26T01:08:30.576Z,0
2018-01-26T01:09:31.242Z,0
2018-01-26T01:10:31.908Z,0
2018-01-26T01:11:32.614Z,0
2018-01-26T01:12:33.319Z,0
2018-01-26T01:13:33.987Z,0
2018-01-26T01:14:34.656Z,0
2018-01-26T01:15:35.322Z,0
2018-01-26T01:16:35.996Z,0
2018-01-26T01:17:36.657Z,0
2018-01-26T01:18:37.324Z,0
2018-01-26T01:19:37.989Z,0
2018-01-26T01:20:38.696Z,0
2018-01-26T01:21:39.360Z,0
2018-01-26T01:22:40.027Z,0
2018-01-26T01:23:40.737Z,0
2018-01-26T01:24:41.404Z,0
2018-01-26T01:25:42.072Z,0
2018-01-26T01:26:42.737Z,0
2018-01-26T01:27:43.402Z,0
2018-01-26T01:28:44.072Z,0
2018-01-26T01:29:44.802Z,0
2018-01-26T01:30:45.399Z,0
2018-01-26T01:31:46.065Z,0
2018-01-26T01:32:46.733Z,0
2018-01-26T01:33:47.440Z,0
2018-01-26T01:34:48.107Z,0
2018-01-26T01:35:48.774Z,0
2018-01-26T01:36:49.439Z,0
2018-01-26T01:37:50.107Z,0
2018-01-26T01:38:50.774Z,0
2018-01-26T01:39:51.490Z,0
2018-01-26T01:40:52.186Z,0
2018-01-26T01:41:52.866Z,0
2018-01-26T01:42:53.533Z,0
2018-01-26T01:43:54.200Z,0
2018-01-26T01:44:54.867Z,0
2018-01-26T01:45:55.534Z,0
2018-01-26T01:46:56.199Z,0
2018-01-26T01:47:56.867Z,0
2018-01-26T01:48:57.532Z,0
2018-01-26T01:49:58.198Z,0
2018-01-26T01:50:58.866Z,0
2018-01-26T01:51:59.533Z,0
2018-01-26T01:53:00.199Z,0
2018-01-26T01:54:00.865Z,0
2018-01-26T01:55:01.533Z,0
2018-01-26T01:56:02.198Z,0
2018-01-26T01:57:02.867Z,0
2018-01-26T01:58:03.532Z,0
2018-01-26T01:59:04.199Z,0
2018-01-26T02:00:05.668Z,0
2018-01-26T02:01:06.335Z,0
2018-01-26T02:02:07.005Z,0
2018-01-26T02:03:07.671Z,0
2018-01-26T02:04:08.336Z,0
2018-01-26T02:05:09.003Z,0
2018-01-26T02:06:09.668Z,0
2018-01-26T02:07:10.374Z,0
2018-01-26T02:08:11.041Z,0
2018-01-26T02:09:11.707Z,0
2018-01-26T02:10:12.372Z,0
2018-01-26T02:11:13.040Z,0
2018-01-26T02:12:13.709Z,0
2018-01-26T02:13:14.375Z,0
2018-01-26T02:14:15.041Z,0
2018-01-26T02:15:15.708Z,0
2018-01-26T02:16:16.375Z,0
2018-01-26T02:17:17.040Z,0
2018-01-26T02:18:17.705Z,0
2018-01-26T02:19:18.372Z,0
2018-01-26T02:20:19.037Z,0
2018-01-26T02:21:19.705Z,0
2018-01-26T02:22:20.373Z,0
2018-01-26T02:23:21.037Z,0
2018-01-26T02:24:30.999Z,0
2018-01-26T02:25:31.663Z,0
2018-01-26T02:26:32.329Z,0
2018-01-26T02:27:32.996Z,0
2018-01-26T02:28:33.659Z,0
2018-01-26T02:29:34.323Z,0
2018-01-26T02:30:34.988Z,0
2018-01-26T02:31:35.651Z,0
2018-01-26T02:32:36.316Z,0
2018-01-26T02:33:36.979Z,0
2018-01-26T02:34:37.643Z,0
2018-01-26T02:35:38.357Z,0
2018-01-26T02:36:39.027Z,0
2018-01-26T02:37:39.685Z,0
2018-01-26T02:38:40.350Z,0
2018-01-26T02:39:41.053Z,0
2018-01-26T02:40:41.715Z,0
2018-01-26T02:41:42.379Z,0
2018-01-26T02:42:43.041Z,0
2018-01-26T02:43:43.708Z,0
2018-01-26T02:44:44.373Z,0
2018-01-26T02:45:45.039Z,0
2018-01-26T02:46:45.702Z,0
2018-01-26T02:47:46.365Z,0
2018-01-26T02:48:47.030Z,0
2018-01-26T02:49:47.695Z,0
2018-01-26T02:50:48.407Z,0
2018-01-26T02:51:49.074Z,0
2018-01-26T02:52:49.739Z,0
2018-01-26T02:53:50.404Z,0
2018-01-26T02:54:51.069Z,0
2018-01-26T02:55:51.732Z,0
2018-01-26T02:56:52.397Z,0
2018-01-26T02:57:53.061Z,0
2018-01-26T02:58:53.726Z,0
2018-01-26T02:59:54.390Z,0
2018-01-26T03:00:55.054Z,0
2018-01-26T03:01:55.720Z,0
2018-01-26T03:02:56.381Z,0
2018-01-26T03:03:57.081Z,0
2018-01-26T03:04:57.748Z,0
2018-01-26T03:05:58.411Z,0
2018-01-26T03:06:59.075Z,0
2018-01-26T03:07:59.738Z,0
2018-01-26T03:09:00.402Z,0
2018-01-26T03:10:01.068Z,0
2018-01-26T03:11:01.735Z,0
2018-01-26T03:12:02.399Z,0
2018-01-26T03:13:03.063Z,0
2018-01-26T03:14:03.728Z,0
2018-01-26T03:15:04.390Z,0
2018-01-26T03:16:05.055Z,0
2018-01-26T03:17:05.719Z,0
2018-01-26T03:18:06.422Z,0
2018-01-26T03:19:07.088Z,0
2018-01-26T03:20:07.752Z,0
2018-01-26T03:21:08.415Z,0
2018-01-26T03:22:09.081Z,0
2018-01-26T03:23:09.745Z,0
2018-01-26T03:24:10.409Z,0
2018-01-26T03:25:11.076Z,0
2018-01-26T03:26:11.793Z,0
2018-01-26T03:27:12.457Z,0
2018-01-26T03:28:13.121Z,0
2018-01-26T03:29:13.786Z,0
2018-01-26T03:30:14.451Z,0
2018-01-26T03:31:15.116Z,0
2018-01-26T03:32:15.782Z,0
2018-01-26T03:33:16.446Z,0
2018-01-26T03:34:17.112Z,0
2018-01-26T03:35:17.774Z,0
2018-01-26T03:36:18.441Z,0
2018-01-26T03:37:19.108Z,0
2018-01-26T03:38:19.773Z,0
2018-01-26T03:39:20.437Z,0
2018-01-26T03:40:21.103Z,0
2018-01-26T03:41:21.767Z,0
2018-01-26T03:42:22.432Z,0
2018-01-26T03:43:23.097Z,0
2018-01-26T03:44:23.761Z,0
2018-01-26T03:45:24.425Z,0
2018-01-26T03:46:25.089Z,0
2018-01-26T03:47:25.755Z,0
2018-01-26T03:48:26.422Z,0
2018-01-26T03:49:27.088Z,0
2018-01-26T03:50:27.753Z,0
2018-01-26T03:51:28.417Z,0
2018-01-26T03:52:29.082Z,0
2018-01-26T03:53:29.784Z,0
2018-01-26T03:54:30.453Z,0
2018-01-26T03:55:31.117Z,0
2018-01-26T03:56:31.781Z,0
2018-01-26T03:57:32.446Z,0
2018-01-26T03:58:33.109Z,0
2018-01-26T03:59:33.777Z,0
2018-01-26T04:00:34.440Z,0
2018-01-26T04:01:35.108Z,0
2018-01-26T04:02:35.812Z,0
2018-01-26T04:03:36.476Z,0
2018-01-26T04:04:37.141Z,0
2018-01-26T04:05:37.806Z,0
2018-01-26T04:06:38.471Z,0
2018-01-26T04:07:39.136Z,0
2018-01-26T04:08:39.801Z,0
2018-01-26T04:09:40.465Z,0
2018-01-26T04:10:41.128Z,0
2018-01-26T04:11:41.795Z,0
2018-01-26T04:12:42.455Z,0
2018-01-26T04:13:43.121Z,0
2018-01-26T04:14:43.787Z,0
2018-01-26T04:15:44.465Z,0
2018-01-26T04:16:45.155Z,0
2018-01-26T04:17:45.819Z,0
2018-01-26T04:18:46.506Z,0
2018-01-26T04:19:47.189Z,0
2018-01-26T04:20:47.891Z,0
2018-01-26T04:21:48.585Z,0
2018-01-26T04:22:49.260Z,0
2018-01-26T04:23:49.925Z,0
2018-01-26T04:24:50.588Z,0
2018-01-26T04:25:51.253Z,0
2018-01-26T04:26:51.965Z,0
2018-01-26T04:27:52.633Z,0
2018-01-26T04:28:53.298Z,0
2018-01-26T04:29:53.962Z,0
2018-01-26T04:30:54.627Z,0
2018-01-26T04:31:55.291Z,0
2018-01-26T04:32:55.956Z,0
2018-01-26T04:33:56.620Z,0
2018-01-26T04:34:57.286Z,0
2018-01-26T04:35:57.988Z,0
2018-01-26T04:36:58.653Z,0
2018-01-26T04:37:59.316Z,0
2018-01-26T04:38:59.979Z,0
2018-01-26T04:40:00.644Z,0
2018-01-26T04:41:01.310Z,0
2018-01-26T04:42:02.026Z,0
2018-01-26T04:43:02.688Z,0
2018-01-26T04:44:03.355Z,0
2018-01-26T04:45:04.021Z,0
2018-01-26T04:46:04.723Z,0
2018-01-26T04:47:05.388Z,0
2018-01-26T04:48:06.090Z,0
2018-01-26T04:49:06.754Z,0
2018-01-26T04:50:07.422Z,0
2018-01-26T04:51:08.122Z,0
2018-01-26T04:52:08.793Z,0
2018-01-26T04:53:09.489Z,0
2018-01-26T04:54:10.153Z,0
2018-01-26T04:55:10.819Z,0
2018-01-26T04:56:11.483Z,0
2018-01-26T04:57:12.150Z,0
2018-01-26T04:58:12.815Z,0
2018-01-26T04:59:13.478Z,0
2018-01-26T05:00:14.144Z,0
2018-01-26T05:01:14.809Z,0
2018-01-26T05:02:15.473Z,0
2018-01-26T05:03:16.137Z,0
2018-01-26T05:04:16.799Z,0
2018-01-26T05:05:17.464Z,0
2018-01-26T05:06:18.127Z,0
2018-01-26T05:07:18.842Z,0
2018-01-26T05:08:19.508Z,0
2018-01-26T05:09:20.171Z,0
2018-01-26T05:10:20.836Z,0
2018-01-26T05:11:21.502Z,0
2018-01-26T05:12:22.166Z,0
2018-01-26T05:13:22.832Z,0
2018-01-26T05:14:23.497Z,0
2018-01-26T05:15:24.161Z,0
2018-01-26T05:16:24.863Z,0
2018-01-26T05:17:25.566Z,0
2018-01-26T05:18:26.231Z,0
2018-01-26T05:19:26.895Z,0
2018-01-26T05:20:27.561Z,0
2018-01-26T05:21:28.227Z,0
2018-01-26T05:22:28.942Z,0
2018-01-26T05:23:29.608Z,0
2018-01-26T05:24:30.273Z,0
2018-01-26T05:25:30.937Z,0
2018-01-26T05:26:31.605Z,0
2018-01-26T05:27:32.267Z,0
2018-01-26T05:28:33.004Z,0
2018-01-26T05:29:33.672Z,0
2018-01-26T05:30:34.337Z,0
2018-01-26T05:31:35.003Z,0
2018-01-26T05:32:35.707Z,0
2018-01-26T05:33:36.373Z,0
2018-01-26T05:34:37.038Z,0
2018-01-26T05:35:37.701Z,0
2018-01-26T05:36:38.367Z,0
2018-01-26T05:37:39.031Z,0
2018-01-26T05:38:39.697Z,0
2018-01-26T05:39:40.361Z,0
2018-01-26T05:40:41.025Z,0
2018-01-26T05:41:41.688Z,0
2018-01-26T05:42:42.402Z,0
2018-01-26T05:43:43.067Z,0
2018-01-26T05:44:43.739Z,0
2018-01-26T05:45:44.436Z,0
2018-01-26T05:46:45.102Z,0
2018-01-26T05:47:45.765Z,0
2018-01-26T05:48:46.428Z,0
2018-01-26T05:49:47.094Z,0
2018-01-26T05:50:47.758Z,0
2018-01-26T05:51:48.423Z,0
2018-01-26T05:52:49.090Z,0
2018-01-26T05:53:49.755Z,0
2018-01-26T05:54:50.418Z,0
2018-01-26T05:55:51.084Z,0
2018-01-26T05:56:51.751Z,0
2018-01-26T05:57:52.417Z,0
2018-01-26T05:58:53.081Z,0
2018-01-26T05:59:53.750Z,0
2018-01-26T06:00:54.452Z,0
2018-01-26T06:01:55.118Z,0
2018-01-26T06:02:55.781Z,0
2018-01-26T06:03:56.446Z,0
2018-01-26T06:04:57.110Z,0
2018-01-26T06:05:57.774Z,0
2018-01-26T06:06:58.438Z,0
2018-01-26T06:07:59.142Z,0
2018-01-26T06:08:59.808Z,0
2018-01-26T06:10:00.475Z,0
2018-01-26T06:11:01.137Z,0
2018-01-26T06:12:01.815Z,0
2018-01-26T06:13:02.502Z,0
2018-01-26T06:14:03.165Z,0
2018-01-26T06:15:03.829Z,0
2018-01-26T06:16:04.499Z,0
2018-01-26T06:17:05.159Z,0
2018-01-26T06:18:06.074Z,0
2018-01-26T06:19:06.740Z,0
2018-01-26T06:20:07.402Z,0
2018-01-26T06:21:08.079Z,0
2018-01-26T06:22:08.771Z,0
2018-01-26T06:23:09.435Z,0
2018-01-26T06:24:10.189Z,0
2018-01-26T06:25:10.805Z,0
2018-01-26T06:26:11.465Z,0
2018-01-26T06:27:12.128Z,0
2018-01-26T06:28:12.794Z,0
2018-01-26T06:29:13.463Z,0
2018-01-26T06:30:14.126Z,0
2018-01-26T06:31:14.829Z,0
2018-01-26T06:32:15.540Z,0
2018-01-26T06:33:16.155Z,0
2018-01-26T06:34:16.818Z,0
2018-01-26T06:35:17.482Z,0
2018-01-26T06:36:18.146Z,0
2018-01-26T06:37:18.849Z,0
2018-01-26T06:38:19.515Z,0
2018-01-26T06:39:20.178Z,0
2018-01-26T06:40:20.842Z,0
2018-01-26T06:41:21.504Z,0
2018-01-26T06:42:22.169Z,0
2018-01-26T06:43:22.908Z,0
2018-01-26T06:44:23.573Z,0
2018-01-26T06:45:24.262Z,0
2018-01-26T06:46:24.939Z,0
2018-01-26T06:47:25.600Z,0
2018-01-26T06:48:26.264Z,0
2018-01-26T06:49:26.935Z,0
2018-01-26T06:50:27.594Z,0
2018-01-26T06:51:28.265Z,0
2018-01-26T06:52:28.923Z,0
2018-01-26T06:53:29.586Z,0
2018-01-26T06:54:30.250Z,0
2018-01-26T06:55:30.928Z,0
2018-01-26T06:56:31.623Z,0
2018-01-26T06:57:32.289Z,0
2018-01-26T06:58:32.992Z,0
2018-01-26T06:59:33.658Z,0
2018-01-26T07:00:34.323Z,0
2018-01-26T07:01:34.989Z,0
2018-01-26T07:02:35.657Z,0
2018-01-26T07:03:36.323Z,0
2018-01-26T07:04:36.989Z,0
2018-01-26T07:05:37.654Z,0
2018-01-26T07:06:38.320Z,0
2018-01-26T07:07:38.985Z,0
2018-01-26T07:08:39.650Z,0
2018-01-26T07:09:40.315Z,0
2018-01-26T07:10:40.981Z,0
2018-01-26T07:11:41.645Z,0
2018-01-26T07:12:42.312Z,0
2018-01-26T07:13:43.029Z,0
2018-01-26T07:14:43.694Z,0
2018-01-26T07:15:44.360Z,0
2018-01-26T07:16:45.027Z,0
2018-01-26T07:17:45.693Z,0
2018-01-26T07:18:46.361Z,0
2018-01-26T07:19:47.028Z,0
2018-01-26T07:20:47.694Z,0
2018-01-26T07:21:48.357Z,0
2018-01-26T07:22:49.028Z,0
2018-01-26T07:23:49.691Z,0
2018-01-26T07:24:50.356Z,0
2018-01-26T07:25:51.026Z,0
2018-01-26T07:26:51.696Z,5
2018-01-26T07:27:52.363Z,5
2018-01-26T07:28:53.079Z,5
2018-01-26T07:29:53.770Z,5
2018-01-26T07:30:54.451Z,5
2018-01-26T07:31:55.118Z,5
2018-01-26T07:32:55.785Z,5
2018-01-26T07:33:56.453Z,5
2018-01-26T07:34:57.119Z,5
2018-01-26T07:35:57.785Z,5
2018-01-26T07:36:58.452Z,5
2018-01-26T07:37:59.119Z,5
2018-01-26T07:38:59.835Z,5
2018-01-26T07:40:00.541Z,5
2018-01-26T07:41:01.212Z,5
2018-01-26T07:42:01.876Z,5
2018-01-26T07:43:02.543Z,5
2018-01-26T07:44:03.233Z,5
2018-01-26T07:45:03.915Z,5
2018-01-26T07:46:04.581Z,5
2018-01-26T07:47:05.247Z,5
2018-01-26T07:48:05.912Z,5
2018-01-26T07:49:06.581Z,5
2018-01-26T07:50:07.247Z,5
2018-01-26T07:51:07.911Z,5
2018-01-26T07:52:08.577Z,5
2018-01-26T07:53:09.244Z,11
2018-01-26T07:54:09.912Z,11
2018-01-26T07:55:10.617Z,11
2018-01-26T07:56:11.284Z,11
2018-01-26T07:57:11.953Z,11
2018-01-26T07:58:12.621Z,11
2018-01-26T07:59:13.288Z,11
2018-01-26T08:00:13.954Z,11
2018-01-26T08:01:14.622Z,11
2018-01-26T08:02:15.291Z,11
2018-01-26T08:03:15.957Z,11
2018-01-26T08:04:16.625Z,11
2018-01-26T08:05:17.294Z,16
2018-01-26T08:06:17.960Z,16
2018-01-26T08:07:18.630Z,16
2018-01-26T08:08:19.337Z,16
2018-01-26T08:09:20.004Z,22
2018-01-26T08:10:20.671Z,22
2018-01-26T08:11:21.376Z,22
2018-01-26T08:12:22.046Z,28
2018-01-26T08:13:22.712Z,28
2018-01-26T08:14:23.379Z,33
2018-01-26T08:15:24.047Z,33
2018-01-26T08:16:24.714Z,33
2018-01-26T08:17:25.382Z,33
2018-01-26T08:18:26.060Z,33
2018-01-26T08:19:26.758Z,39
2018-01-26T08:20:27.427Z,39
2018-01-26T08:21:28.097Z,39
2018-01-26T08:22:28.765Z,45
2018-01-26T08:23:29.432Z,45
2018-01-26T08:24:30.101Z,45
2018-01-26T08:25:30.771Z,50
2018-01-26T08:26:31.440Z,50
2018-01-26T08:27:32.128Z,50
2018-01-26T08:28:32.815Z,50
2018-01-26T08:29:33.486Z,50
2018-01-26T08:30:34.155Z,56
2018-01-26T08:31:34.863Z,56
2018-01-26T08:32:35.533Z,56
2018-01-26T08:33:36.202Z,56
2018-01-26T08:34:36.871Z,56
2018-01-26T08:35:37.538Z,56
2018-01-26T08:36:38.208Z,56
2018-01-26T08:37:38.875Z,56
2018-01-26T08:38:39.544Z,50
2018-01-26T08:39:40.213Z,50
2018-01-26T08:40:40.888Z,50
2018-01-26T08:41:41.589Z,50
2018-01-26T08:42:42.257Z,50
2018-01-26T08:43:42.925Z,50
2018-01-26T08:44:43.595Z,50
2018-01-26T08:45:44.264Z,56
2018-01-26T08:46:44.932Z,56
2018-01-26T08:47:45.602Z,61
2018-01-26T08:48:46.268Z,61
2018-01-26T08:49:46.937Z,61
2018-01-26T08:50:47.607Z,67
2018-01-26T08:51:48.275Z,67
2018-01-26T08:52:48.946Z,67
2018-01-26T08:53:49.615Z,67
2018-01-26T08:54:50.283Z,73
2018-01-26T08:55:50.952Z,73
2018-01-26T08:56:51.622Z,73
2018-01-26T08:57:52.291Z,73
2018-01-26T08:58:52.997Z,78
2018-01-26T08:59:53.666Z,78
2018-01-26T09:00:54.335Z,84
2018-01-26T09:01:55.004Z,84
2018-01-26T09:02:55.672Z,90
2018-01-26T09:03:56.341Z,90
2018-01-26T09:04:57.051Z,90
2018-01-26T09:05:57.716Z,90
2018-01-26T09:06:58.386Z,95
2018-01-26T09:07:59.054Z,95
2018-01-26T09:08:59.761Z,90
2018-01-26T09:10:00.429Z,90
2018-01-26T09:11:01.096Z,84
2018-01-26T09:12:01.768Z,78
2018-01-26T09:13:02.435Z,78
2018-01-26T09:14:03.117Z,78
2018-01-26T09:15:03.815Z,73
2018-01-26T09:16:04.485Z,73
2018-01-26T09:17:05.153Z,73
2018-01-26T09:18:05.824Z,67
2018-01-26T09:19:06.491Z,73
2018-01-26T09:20:07.198Z,73
2018-01-26T09:21:07.867Z,73
2018-01-26T09:22:08.537Z,73
2018-01-26T09:23:09.204Z,73
2018-01-26T09:24:09.873Z,78
2018-01-26T09:25:10.544Z,78
2018-01-26T09:26:11.212Z,84
2018-01-26T09:27:11.882Z,90
2018-01-26T09:28:12.552Z,90
2018-01-26T09:29:13.219Z,90
2018-01-26T09:30:13.888Z,90
2018-01-26T09:31:14.558Z,90
2018-01-26T09:32:15.226Z,95
2018-01-26T09:33:15.894Z,95
2018-01-26T09:34:16.567Z,101
2018-01-26T09:35:17.237Z,101
2018-01-26T09:36:17.909Z,101
2018-01-26T09:37:18.580Z,95
2018-01-26T09:38:19.251Z,95
2018-01-26T09:39:19.922Z,101
2018-01-26T09:40:20.592Z,101
2018-01-26T09:41:21.304Z,106
2018-01-26T09:42:21.978Z,106
2018-01-26T09:43:22.649Z,106
2018-01-26T09:44:23.319Z,112
2018-01-26T09:45:24.040Z,112
2018-01-26T09:46:24.712Z,118
2018-01-26T09:47:25.386Z,118
2018-01-26T09:48:26.056Z,118
2018-01-26T09:49:26.727Z,112
2018-01-26T09:50:27.400Z,112
2018-01-26T09:51:28.072Z,106
2018-01-26T09:52:28.742Z,106
2018-01-26T09:53:29.452Z,106
2018-01-26T09:54:30.123Z,101
2018-01-26T09:55:30.813Z,101
2018-01-26T09:56:31.464Z,95
2018-01-26T09:57:32.136Z,95
2018-01-26T09:58:32.806Z,95
2018-01-26T09:59:33.476Z,101
2018-01-26T10:00:34.150Z,101
2018-01-26T10:01:34.820Z,101
2018-01-26T10:02:35.492Z,106
2018-01-26T10:03:36.163Z,106
2018-01-26T10:04:36.834Z,106
2018-01-26T10:05:37.557Z,106
2018-01-26T10:06:38.229Z,112
2018-01-26T10:07:38.904Z,106
2018-01-26T10:08:39.571Z,112
2018-01-26T10:09:40.245Z,112
2018-01-26T10:10:40.915Z,112
2018-01-26T10:11:41.588Z,106
2018-01-26T10:12:42.296Z,106
2018-01-26T10:13:42.967Z,112
2018-01-26T10:14:43.655Z,112
2018-01-26T10:15:44.353Z,112
2018-01-26T10:16:45.026Z,118
2018-01-26T10:17:45.696Z,118
2018-01-26T10:18:46.368Z,118
2018-01-26T10:19:47.040Z,123
2018-01-26T10:20:47.711Z,123
2018-01-26T10:21:48.383Z,123
2018-01-26T10:22:49.054Z,123
2018-01-26T10:23:49.725Z,123
2018-01-26T10:24:50.401Z,118
2018-01-26T10:25:51.071Z,123
2018-01-26T10:26:51.744Z,123
2018-01-26T10:27:52.414Z,123
2018-01-26T10:28:53.093Z,123
2018-01-26T10:29:53.799Z,123
2018-01-26T10:30:54.471Z,129
2018-01-26T10:31:55.143Z,129
2018-01-26T10:32:55.814Z,129
2018-01-26T10:33:56.488Z,135
2018-01-26T10:34:57.160Z,135
2018-01-26T10:35:57.831Z,135
2018-01-26T10:36:58.502Z,140
2018-01-26T10:37:59.173Z,140
2018-01-26T10:38:59.847Z,140
2018-01-26T10:40:00.518Z,135
2018-01-26T10:41:01.239Z,129
2018-01-26T10:42:01.949Z,118
2018-01-26T10:43:02.622Z,112
2018-01-26T10:44:03.294Z,106
2018-01-26T10:45:03.968Z,101
2018-01-26T10:46:04.637Z,95
2018-01-26T10:47:05.307Z,90
2018-01-26T10:48:05.980Z,95
2018-01-26T10:49:06.651Z,90
2018-01-26T10:50:07.322Z,84
2018-01-26T10:51:07.992Z,78
2018-01-26T10:52:08.662Z,73
2018-01-26T10:53:09.332Z,67
2018-01-26T10:54:10.006Z,67
2018-01-26T10:55:10.676Z,73
2018-01-26T10:56:11.347Z,78
2018-01-26T10:57:12.017Z,84
2018-01-26T10:58:12.728Z,90
2018-01-26T10:59:13.400Z,95
2018-01-26T11:00:14.072Z,101
2018-01-26T11:01:14.795Z,112
2018-01-26T11:02:15.466Z,123
2018-01-26T11:03:16.139Z,129
2018-01-26T11:04:16.811Z,135
2018-01-26T11:05:17.489Z,135
2018-01-26T11:06:18.192Z,140
2018-01-26T11:07:18.863Z,140
2018-01-26T11:08:19.536Z,135
2018-01-26T11:09:20.210Z,123
2018-01-26T11:10:20.882Z,123
2018-01-26T11:11:21.554Z,118
2018-01-26T11:12:22.224Z,118
2018-01-26T11:13:22.898Z,112
2018-01-26T11:14:23.568Z,106
2018-01-26T11:15:24.241Z,106
2018-01-26T11:16:24.912Z,101
2018-01-26T11:17:25.585Z,106
2018-01-26T11:18:26.299Z,106
2018-01-26T11:19:26.970Z,106
2018-01-26T11:20:27.642Z,106
2018-01-26T11:21:28.312Z,106
2018-01-26T11:22:28.986Z,101
2018-01-26T11:23:29.659Z,101
2018-01-26T11:24:30.329Z,95
2018-01-26T11:25:31.000Z,90
2018-01-26T11:26:31.677Z,84
2018-01-26T11:27:32.343Z,90
2018-01-26T11:28:33.052Z,90
2018-01-26T11:29:33.722Z,90
2018-01-26T11:30:34.394Z,95
2018-01-26T11:31:35.066Z,95
2018-01-26T11:32:35.762Z,101
2018-01-26T11:33:36.411Z,101
2018-01-26T11:34:37.082Z,101
2018-01-26T11:35:37.754Z,101
2018-01-26T11:36:38.425Z,101
2018-01-26T11:37:39.098Z,106
2018-01-26T11:38:39.771Z,112
2018-01-26T11:39:40.443Z,123
2018-01-26T11:40:41.114Z,129
2018-01-26T11:41:41.785Z,140
2018-01-26T11:42:42.458Z,140
2018-01-26T11:43:43.129Z,135
2018-01-26T11:44:43.801Z,140
2018-01-26T11:45:44.473Z,140
2018-01-26T11:46:45.145Z,146
2018-01-26T11:47:45.818Z,146
2018-01-26T11:48:46.489Z,140
2018-01-26T11:49:47.161Z,146
2018-01-26T11:50:47.832Z,151
2018-01-26T11:51:48.505Z,151
2018-01-26T11:52:49.178Z,157
2018-01-26T11:53:49.849Z,157
2018-01-26T11:54:50.521Z,157
2018-01-26T11:55:51.205Z,157
2018-01-26T11:56:51.867Z,151
2018-01-26T11:57:52.541Z,146
2018-01-26T11:58:53.209Z,146
2018-01-26T11:59:53.882Z,146
2018-01-26T12:00:54.554Z,146
2018-01-26T12:01:55.227Z,146
2018-01-26T12:02:55.898Z,146
2018-01-26T12:03:56.571Z,151
2018-01-26T12:04:57.243Z,151
2018-01-26T12:05:57.914Z,151
2018-01-26T12:06:58.587Z,151
2018-01-26T12:07:59.258Z,151
2018-01-26T12:08:59.970Z,151
2018-01-26T12:10:00.643Z,157
2018-01-26T12:11:01.354Z,151
2018-01-26T12:12:02.114Z,146
2018-01-26T12:13:02.750Z,146
2018-01-26T12:14:03.421Z,140
2018-01-26T12:15:04.093Z,140
2018-01-26T12:16:04.766Z,135
2018-01-26T12:17:05.438Z,140
2018-01-26T12:18:06.111Z,135
2018-01-26T12:19:06.783Z,129
2018-01-26T12:20:07.455Z,123
2018-01-26T12:21:08.129Z,118
2018-01-26T12:22:08.802Z,118
2018-01-26T12:23:09.512Z,106
2018-01-26T12:24:10.184Z,101
2018-01-26T12:25:10.853Z,95
2018-01-26T12:26:11.566Z,84
2018-01-26T12:27:12.289Z,84
2018-01-26T12:28:12.993Z,90
2018-01-26T12:29:13.668Z,90
2018-01-26T12:30:14.339Z,90
2018-01-26T12:31:15.012Z,90
2018-01-26T12:32:15.684Z,95
2018-01-26T12:33:16.353Z,95
2018-01-26T12:34:17.024Z,95
2018-01-26T12:35:17.698Z,101
2018-01-26T12:36:18.368Z,106
2018-01-26T12:37:19.041Z,106
2018-01-26T12:38:19.749Z,118
2018-01-26T12:39:20.422Z,129
2018-01-26T12:40:21.092Z,135
2018-01-26T12:41:21.763Z,135
2018-01-26T12:42:22.436Z,140
2018-01-26T12:43:23.111Z,140
2018-01-26T12:44:23.780Z,135
2018-01-26T12:45:24.451Z,135
2018-01-26T12:46:25.123Z,129
2018-01-26T12:47:25.796Z,123
2018-01-26T12:48:26.469Z,118
2018-01-26T12:49:27.141Z,106
2018-01-26T12:50:27.852Z,106
2018-01-26T12:51:28.525Z,101
2018-01-26T12:52:29.199Z,101
2018-01-26T12:53:29.871Z,101
2018-01-26T12:54:30.543Z,95
2018-01-26T12:55:31.211Z,95
2018-01-26T12:56:31.901Z,90
2018-01-26T12:57:32.599Z,90
2018-01-26T12:58:33.263Z,90
2018-01-26T12:59:33.934Z,95
2018-01-26T13:00:34.604Z,95
2018-01-26T13:01:35.314Z,106
2018-01-26T13:02:35.986Z,106
2018-01-26T13:03:36.659Z,101
2018-01-26T13:04:37.332Z,101
2018-01-26T13:05:38.003Z,90
2018-01-26T13:06:38.676Z,84
2018-01-26T13:07:39.382Z,84
2018-01-26T13:08:40.056Z,78
2018-01-26T13:09:40.727Z,78
2018-01-26T13:10:41.399Z,78
2018-01-26T13:11:42.070Z,73
2018-01-26T13:12:42.740Z,73
2018-01-26T13:13:43.442Z,73
2018-01-26T13:14:44.082Z,73
2018-01-26T13:15:44.782Z,73
2018-01-26T13:16:45.463Z,73
2018-01-26T13:17:46.134Z,67
2018-01-26T13:18:46.802Z,67
2018-01-26T13:19:47.475Z,73
2018-01-26T13:20:48.144Z,73
2018-01-26T13:21:48.818Z,78
2018-01-26T13:22:49.488Z,90
2018-01-26T13:23:50.162Z,101
2018-01-26T13:24:50.834Z,106
2018-01-26T13:25:51.503Z,106
2018-01-26T13:26:52.176Z,106
2018-01-26T13:27:52.848Z,101
2018-01-26T13:28:53.518Z,90
2018-01-26T13:29:54.191Z,78
2018-01-26T13:30:54.860Z,67
2018-01-26T13:31:55.532Z,61
2018-01-26T13:32:56.203Z,56
2018-01-26T13:33:56.913Z,56
2018-01-26T13:34:57.629Z,56
2018-01-26T13:35:58.292Z,56
2018-01-26T13:36:58.964Z,61
2018-01-26T13:37:59.672Z,61
2018-01-26T13:39:00.344Z,56
2018-01-26T13:40:01.014Z,50
2018-01-26T13:41:01.684Z,45
2018-01-26T13:42:02.358Z,45
2018-01-26T13:43:03.078Z,45
2018-01-26T13:44:04.093Z,45
2018-01-26T13:45:04.699Z,45
2018-01-26T13:46:05.367Z,45
2018-01-26T13:47:06.038Z,45
2018-01-26T13:48:06.709Z,50
2018-01-26T13:49:07.381Z,50
2018-01-26T13:50:08.051Z,50
2018-01-26T13:51:08.726Z,50
2018-01-26T13:52:09.395Z,50
2018-01-26T13:53:10.070Z,45
2018-01-26T13:54:10.738Z,50
2018-01-26T13:55:11.461Z,50
2018-01-26T13:56:12.080Z,50
2018-01-26T13:57:12.754Z,50
2018-01-26T13:58:13.421Z,50
2018-01-26T13:59:14.098Z,50
2018-01-26T14:00:14.804Z,45
2018-01-26T14:01:15.477Z,45
2018-01-26T14:02:16.185Z,39
2018-01-26T14:03:16.855Z,33
2018-01-26T14:04:17.523Z,28
2018-01-26T14:05:18.192Z,22
2018-01-26T14:06:18.864Z,22
2018-01-26T14:07:19.533Z,22
2018-01-26T14:08:20.202Z,22
2018-01-26T14:09:20.911Z,16
2018-01-26T14:10:21.580Z,16
2018-01-26T14:11:22.252Z,11
2018-01-26T14:12:22.957Z,16
2018-01-26T14:13:23.627Z,16
2018-01-26T14:14:24.299Z,22
2018-01-26T14:15:25.005Z,22
2018-01-26T14:16:25.675Z,28
2018-01-26T14:17:26.343Z,28
2018-01-26T14:18:27.022Z,33
2018-01-26T14:19:27.679Z,33
2018-01-26T14:20:28.350Z,33
2018-01-26T14:21:29.019Z,33
2018-01-26T14:22:29.691Z,33
2018-01-26T14:23:30.358Z,28
2018-01-26T14:24:31.027Z,28
2018-01-26T14:25:31.697Z,28
2018-01-26T14:26:32.367Z,28
2018-01-26T14:27:33.037Z,28
2018-01-26T14:28:33.708Z,28
2018-01-26T14:29:34.377Z,22
2018-01-26T14:30:35.048Z,22
2018-01-26T14:31:35.749Z,22
2018-01-26T14:32:36.388Z,22
2018-01-26T14:33:37.057Z,28
2018-01-26T14:34:37.726Z,28
2018-01-26T14:35:38.396Z,33
2018-01-26T14:36:39.068Z,33